sensor_id;sensor_type;location;lat;lon;timestamp;P1;durP1;ratioP1;P2;durP2;ratioP2
7045;SDS011;3564;53.326;10.356;2022-10-16T00:02:00;4.90;;;4.40;;
7045;SDS011;3564;53.326;10.356;2022-10-16T00:04:26;4.63;;;4.07;;
7045;SDS011;3564;53.326;10.356;2022-10-16T00:06:51;5.67;;;4.37;;
7045;SDS011;3564;53.326;10.356;2022-10-16T00:09:17;6.33;;;4.33;;
7045;SDS011;3564;53.326;10.356;2022-10-16T00:11:43;5.53;;;4.20;;
7045;SDS011;3564;53.326;10.356;2022-10-16T00:14:10;4.53;;;4.10;;
7045;SDS011;3564;53.326;10.356;2022-10-16T00:16:37;5.90;;;4.10;;
7045;SDS011;3564;53.326;10.356;2022-10-16T00:19:04;6.13;;;4.10;;
7045;SDS011;3564;53.326;10.356;2022-10-16T00:21:30;7.07;;;4.23;;
7045;SDS011;3564;53.326;10.356;2022-10-16T00:23:59;5.37;;;3.70;;
7045;SDS011;3564;53.326;10.356;2022-10-16T00:26:26;4.70;;;3.70;;
7045;SDS011;3564;53.326;10.356;2022-10-16T00:28:53;3.87;;;3.40;;
7045;SDS011;3564;53.326;10.356;2022-10-16T00:31:19;4.87;;;3.43;;
7045;SDS011;3564;53.326;10.356;2022-10-16T00:33:47;5.10;;;3.83;;
7045;SDS011;3564;53.326;10.356;2022-10-16T00:36:13;4.67;;;3.63;;
7045;SDS011;3564;53.326;10.356;2022-10-16T00:38:41;5.03;;;3.83;;
7045;SDS011;3564;53.326;10.356;2022-10-16T00:41:07;4.00;;;3.60;;
7045;SDS011;3564;53.326;10.356;2022-10-16T00:46:22;5.97;;;4.30;;
7045;SDS011;3564;53.326;10.356;2022-10-16T00:49:09;4.27;;;3.70;;
7045;SDS011;3564;53.326;10.356;2022-10-16T00:51:42;5.20;;;3.33;;
7045;SDS011;3564;53.326;10.356;2022-10-16T00:54:29;5.83;;;3.67;;
7045;SDS011;3564;53.326;10.356;2022-10-16T00:57:11;3.93;;;3.43;;
7045;SDS011;3564;53.326;10.356;2022-10-16T00:59:37;4.40;;;3.57;;
7045;SDS011;3564;53.326;10.356;2022-10-16T01:02:06;3.60;;;2.90;;
7045;SDS011;3564;53.326;10.356;2022-10-16T01:04:38;3.53;;;3.23;;
7045;SDS011;3564;53.326;10.356;2022-10-16T01:13:06;3.73;;;2.73;;
7045;SDS011;3564;53.326;10.356;2022-10-16T01:23:32;2.87;;;2.10;;
7045;SDS011;3564;53.326;10.356;2022-10-16T01:28:52;2.53;;;2.10;;
7045;SDS011;3564;53.326;10.356;2022-10-16T01:32:15;5.47;;;2.30;;
7045;SDS011;3564;53.326;10.356;2022-10-16T01:34:48;2.53;;;2.20;;
7045;SDS011;3564;53.326;10.356;2022-10-16T01:37:35;4.07;;;1.70;;
7045;SDS011;3564;53.326;10.356;2022-10-16T01:40:23;2.87;;;1.93;;
7045;SDS011;3564;53.326;10.356;2022-10-16T01:42:52;3.90;;;1.90;;
7045;SDS011;3564;53.326;10.356;2022-10-16T01:45:29;3.87;;;1.90;;
7045;SDS011;3564;53.326;10.356;2022-10-16T01:47:56;1.93;;;1.60;;
7045;SDS011;3564;53.326;10.356;2022-10-16T01:50:25;2.33;;;1.70;;
7045;SDS011;3564;53.326;10.356;2022-10-16T01:52:52;3.60;;;1.77;;
7045;SDS011;3564;53.326;10.356;2022-10-16T01:55:31;3.37;;;1.70;;
7045;SDS011;3564;53.326;10.356;2022-10-16T01:58:17;2.53;;;1.60;;
7045;SDS011;3564;53.326;10.356;2022-10-16T02:00:43;6.10;;;1.70;;
7045;SDS011;3564;53.326;10.356;2022-10-16T02:03:11;5.63;;;1.87;;
7045;SDS011;3564;53.326;10.356;2022-10-16T02:06:16;5.23;;;1.90;;
7045;SDS011;3564;53.326;10.356;2022-10-16T02:08:42;3.20;;;1.97;;
7045;SDS011;3564;53.326;10.356;2022-10-16T02:11:09;1.77;;;1.50;;
7045;SDS011;3564;53.326;10.356;2022-10-16T02:13:37;4.00;;;1.87;;
7045;SDS011;3564;53.326;10.356;2022-10-16T02:16:11;1.97;;;1.30;;
7045;SDS011;3564;53.326;10.356;2022-10-16T02:18:39;2.10;;;1.57;;
7045;SDS011;3564;53.326;10.356;2022-10-16T02:26:27;1.83;;;1.50;;
7045;SDS011;3564;53.326;10.356;2022-10-16T02:29:10;1.60;;;1.50;;
7045;SDS011;3564;53.326;10.356;2022-10-16T02:31:41;2.53;;;1.60;;
7045;SDS011;3564;53.326;10.356;2022-10-16T02:34:10;4.37;;;1.70;;
7045;SDS011;3564;53.326;10.356;2022-10-16T02:36:37;2.83;;;1.57;;
7045;SDS011;3564;53.326;10.356;2022-10-16T02:39:05;2.07;;;1.53;;
7045;SDS011;3564;53.326;10.356;2022-10-16T02:41:31;4.13;;;1.50;;
7045;SDS011;3564;53.326;10.356;2022-10-16T02:43:57;1.73;;;1.60;;
7045;SDS011;3564;53.326;10.356;2022-10-16T02:46:23;2.77;;;1.50;;
7045;SDS011;3564;53.326;10.356;2022-10-16T02:48:49;3.20;;;1.80;;
7045;SDS011;3564;53.326;10.356;2022-10-16T02:51:14;3.87;;;2.03;;
7045;SDS011;3564;53.326;10.356;2022-10-16T02:53:40;2.20;;;2.00;;
7045;SDS011;3564;53.326;10.356;2022-10-16T02:56:05;2.07;;;1.80;;
7045;SDS011;3564;53.326;10.356;2022-10-16T02:58:37;3.30;;;1.60;;
7045;SDS011;3564;53.326;10.356;2022-10-16T03:01:03;2.67;;;1.63;;
7045;SDS011;3564;53.326;10.356;2022-10-16T03:03:28;1.60;;;1.50;;
7045;SDS011;3564;53.326;10.356;2022-10-16T03:05:55;3.20;;;1.77;;
7045;SDS011;3564;53.326;10.356;2022-10-16T03:08:20;5.07;;;1.87;;
7045;SDS011;3564;53.326;10.356;2022-10-16T03:10:49;3.20;;;1.60;;
7045;SDS011;3564;53.326;10.356;2022-10-16T03:13:15;3.93;;;1.60;;
7045;SDS011;3564;53.326;10.356;2022-10-16T03:15:40;4.70;;;1.97;;
7045;SDS011;3564;53.326;10.356;2022-10-16T03:18:06;2.23;;;1.50;;
7045;SDS011;3564;53.326;10.356;2022-10-16T03:20:31;3.67;;;1.73;;
7045;SDS011;3564;53.326;10.356;2022-10-16T03:22:57;2.83;;;1.60;;
7045;SDS011;3564;53.326;10.356;2022-10-16T03:25:23;4.10;;;2.13;;
7045;SDS011;3564;53.326;10.356;2022-10-16T03:27:48;2.73;;;1.70;;
7045;SDS011;3564;53.326;10.356;2022-10-16T03:30:15;3.73;;;1.90;;
7045;SDS011;3564;53.326;10.356;2022-10-16T03:32:41;3.47;;;1.80;;
7045;SDS011;3564;53.326;10.356;2022-10-16T03:35:08;3.87;;;1.90;;
7045;SDS011;3564;53.326;10.356;2022-10-16T03:37:34;4.20;;;1.77;;
7045;SDS011;3564;53.326;10.356;2022-10-16T03:39:59;4.17;;;1.90;;
7045;SDS011;3564;53.326;10.356;2022-10-16T03:42:25;5.33;;;1.50;;
7045;SDS011;3564;53.326;10.356;2022-10-16T03:44:50;3.83;;;1.80;;
7045;SDS011;3564;53.326;10.356;2022-10-16T03:47:16;2.67;;;1.70;;
7045;SDS011;3564;53.326;10.356;2022-10-16T03:49:45;3.27;;;1.77;;
7045;SDS011;3564;53.326;10.356;2022-10-16T03:52:11;4.70;;;1.80;;
7045;SDS011;3564;53.326;10.356;2022-10-16T03:54:37;3.80;;;1.77;;
7045;SDS011;3564;53.326;10.356;2022-10-16T03:57:03;2.07;;;1.40;;
7045;SDS011;3564;53.326;10.356;2022-10-16T03:59:28;1.63;;;1.37;;
7045;SDS011;3564;53.326;10.356;2022-10-16T04:01:54;2.30;;;1.90;;
7045;SDS011;3564;53.326;10.356;2022-10-16T04:04:19;3.00;;;1.60;;
7045;SDS011;3564;53.326;10.356;2022-10-16T04:06:45;4.17;;;1.57;;
7045;SDS011;3564;53.326;10.356;2022-10-16T04:09:10;3.63;;;1.90;;
7045;SDS011;3564;53.326;10.356;2022-10-16T04:11:36;3.87;;;1.50;;
7045;SDS011;3564;53.326;10.356;2022-10-16T04:14:02;3.40;;;1.80;;
7045;SDS011;3564;53.326;10.356;2022-10-16T04:16:27;3.30;;;1.87;;
7045;SDS011;3564;53.326;10.356;2022-10-16T04:18:53;2.47;;;1.67;;
7045;SDS011;3564;53.326;10.356;2022-10-16T04:21:20;3.77;;;1.70;;
7045;SDS011;3564;53.326;10.356;2022-10-16T04:23:45;2.03;;;1.60;;
7045;SDS011;3564;53.326;10.356;2022-10-16T04:26:11;4.90;;;1.90;;
7045;SDS011;3564;53.326;10.356;2022-10-16T04:28:36;2.63;;;1.83;;
7045;SDS011;3564;53.326;10.356;2022-10-16T04:31:05;1.83;;;1.60;;
7045;SDS011;3564;53.326;10.356;2022-10-16T04:33:31;3.03;;;1.60;;
7045;SDS011;3564;53.326;10.356;2022-10-16T04:35:58;2.40;;;1.60;;
7045;SDS011;3564;53.326;10.356;2022-10-16T04:38:25;3.83;;;1.90;;
7045;SDS011;3564;53.326;10.356;2022-10-16T04:40:51;1.70;;;1.60;;
7045;SDS011;3564;53.326;10.356;2022-10-16T04:43:17;3.70;;;1.70;;
7045;SDS011;3564;53.326;10.356;2022-10-16T04:45:43;2.77;;;1.60;;
7045;SDS011;3564;53.326;10.356;2022-10-16T04:48:08;4.63;;;2.13;;
7045;SDS011;3564;53.326;10.356;2022-10-16T04:50:34;4.70;;;1.90;;
7045;SDS011;3564;53.326;10.356;2022-10-16T04:52:59;6.10;;;1.97;;
7045;SDS011;3564;53.326;10.356;2022-10-16T04:55:25;2.47;;;1.90;;
7045;SDS011;3564;53.326;10.356;2022-10-16T04:57:50;3.13;;;1.80;;
7045;SDS011;3564;53.326;10.356;2022-10-16T05:00:16;3.83;;;1.97;;
7045;SDS011;3564;53.326;10.356;2022-10-16T05:02:42;2.70;;;1.60;;
7045;SDS011;3564;53.326;10.356;2022-10-16T05:05:07;3.77;;;1.90;;
7045;SDS011;3564;53.326;10.356;2022-10-16T05:07:33;2.93;;;1.77;;
7045;SDS011;3564;53.326;10.356;2022-10-16T05:09:58;4.60;;;2.03;;
7045;SDS011;3564;53.326;10.356;2022-10-16T05:12:24;4.47;;;1.90;;
7045;SDS011;3564;53.326;10.356;2022-10-16T05:14:49;4.10;;;1.80;;
7045;SDS011;3564;53.326;10.356;2022-10-16T05:17:15;4.23;;;2.37;;
7045;SDS011;3564;53.326;10.356;2022-10-16T05:19:40;4.13;;;1.90;;
7045;SDS011;3564;53.326;10.356;2022-10-16T05:22:06;4.83;;;2.13;;
7045;SDS011;3564;53.326;10.356;2022-10-16T05:24:32;3.57;;;2.00;;
7045;SDS011;3564;53.326;10.356;2022-10-16T05:26:57;4.30;;;1.87;;
7045;SDS011;3564;53.326;10.356;2022-10-16T05:29:23;2.97;;;2.00;;
7045;SDS011;3564;53.326;10.356;2022-10-16T05:31:52;3.63;;;2.00;;
7045;SDS011;3564;53.326;10.356;2022-10-16T05:34:19;6.93;;;1.77;;
7045;SDS011;3564;53.326;10.356;2022-10-16T05:36:45;4.33;;;2.00;;
7045;SDS011;3564;53.326;10.356;2022-10-16T05:39:11;3.60;;;2.03;;
7045;SDS011;3564;53.326;10.356;2022-10-16T05:41:39;3.73;;;2.07;;
7045;SDS011;3564;53.326;10.356;2022-10-16T05:44:04;2.47;;;2.13;;
7045;SDS011;3564;53.326;10.356;2022-10-16T05:46:30;7.10;;;2.30;;
7045;SDS011;3564;53.326;10.356;2022-10-16T05:48:56;3.73;;;2.10;;
7045;SDS011;3564;53.326;10.356;2022-10-16T05:51:22;3.93;;;2.43;;
7045;SDS011;3564;53.326;10.356;2022-10-16T05:53:48;3.07;;;2.20;;
7045;SDS011;3564;53.326;10.356;2022-10-16T05:56:13;2.00;;;1.87;;
7045;SDS011;3564;53.326;10.356;2022-10-16T05:58:39;2.73;;;1.80;;
7045;SDS011;3564;53.326;10.356;2022-10-16T06:01:06;4.23;;;2.10;;
7045;SDS011;3564;53.326;10.356;2022-10-16T06:03:36;3.80;;;1.90;;
7045;SDS011;3564;53.326;10.356;2022-10-16T06:06:09;3.30;;;1.90;;
7045;SDS011;3564;53.326;10.356;2022-10-16T06:08:39;5.03;;;1.90;;
7045;SDS011;3564;53.326;10.356;2022-10-16T06:11:08;4.80;;;1.63;;
7045;SDS011;3564;53.326;10.356;2022-10-16T06:13:35;4.90;;;2.07;;
7045;SDS011;3564;53.326;10.356;2022-10-16T06:16:01;3.70;;;2.00;;
7045;SDS011;3564;53.326;10.356;2022-10-16T06:18:28;3.13;;;2.03;;
7045;SDS011;3564;53.326;10.356;2022-10-16T06:20:55;3.53;;;2.10;;
7045;SDS011;3564;53.326;10.356;2022-10-16T06:23:20;3.63;;;2.00;;
7045;SDS011;3564;53.326;10.356;2022-10-16T06:25:46;2.33;;;1.87;;
7045;SDS011;3564;53.326;10.356;2022-10-16T06:28:13;8.47;;;2.57;;
7045;SDS011;3564;53.326;10.356;2022-10-16T06:30:39;4.83;;;1.67;;
7045;SDS011;3564;53.326;10.356;2022-10-16T06:33:10;3.27;;;2.20;;
7045;SDS011;3564;53.326;10.356;2022-10-16T06:35:35;3.07;;;1.90;;
7045;SDS011;3564;53.326;10.356;2022-10-16T06:38:01;4.30;;;2.00;;
7045;SDS011;3564;53.326;10.356;2022-10-16T06:40:27;5.47;;;2.20;;
7045;SDS011;3564;53.326;10.356;2022-10-16T06:42:54;5.30;;;2.10;;
7045;SDS011;3564;53.326;10.356;2022-10-16T06:45:20;5.93;;;1.97;;
7045;SDS011;3564;53.326;10.356;2022-10-16T06:47:45;2.97;;;2.03;;
7045;SDS011;3564;53.326;10.356;2022-10-16T06:50:11;4.90;;;2.30;;
7045;SDS011;3564;53.326;10.356;2022-10-16T06:52:36;2.73;;;1.90;;
7045;SDS011;3564;53.326;10.356;2022-10-16T06:55:02;5.67;;;2.30;;
7045;SDS011;3564;53.326;10.356;2022-10-16T06:57:28;3.40;;;2.17;;
7045;SDS011;3564;53.326;10.356;2022-10-16T06:59:54;3.70;;;2.70;;
7045;SDS011;3564;53.326;10.356;2022-10-16T07:02:19;4.77;;;2.07;;
7045;SDS011;3564;53.326;10.356;2022-10-16T07:04:45;3.10;;;2.07;;
7045;SDS011;3564;53.326;10.356;2022-10-16T07:07:10;4.40;;;2.00;;
7045;SDS011;3564;53.326;10.356;2022-10-16T07:09:36;3.13;;;2.30;;
7045;SDS011;3564;53.326;10.356;2022-10-16T07:12:02;3.40;;;2.40;;
7045;SDS011;3564;53.326;10.356;2022-10-16T07:14:27;4.07;;;1.80;;
7045;SDS011;3564;53.326;10.356;2022-10-16T07:16:54;4.03;;;2.53;;
7045;SDS011;3564;53.326;10.356;2022-10-16T07:19:20;6.27;;;2.23;;
7045;SDS011;3564;53.326;10.356;2022-10-16T07:21:46;3.43;;;1.97;;
7045;SDS011;3564;53.326;10.356;2022-10-16T07:24:12;3.63;;;2.33;;
7045;SDS011;3564;53.326;10.356;2022-10-16T07:26:41;6.40;;;2.00;;
7045;SDS011;3564;53.326;10.356;2022-10-16T07:29:13;4.80;;;2.07;;
7045;SDS011;3564;53.326;10.356;2022-10-16T07:31:40;8.60;;;2.40;;
7045;SDS011;3564;53.326;10.356;2022-10-16T07:34:06;2.00;;;1.73;;
7045;SDS011;3564;53.326;10.356;2022-10-16T07:36:31;5.67;;;2.40;;
7045;SDS011;3564;53.326;10.356;2022-10-16T07:38:57;2.80;;;2.10;;
7045;SDS011;3564;53.326;10.356;2022-10-16T07:41:22;3.60;;;2.20;;
7045;SDS011;3564;53.326;10.356;2022-10-16T07:43:50;4.07;;;2.07;;
7045;SDS011;3564;53.326;10.356;2022-10-16T07:46:17;3.90;;;2.40;;
7045;SDS011;3564;53.326;10.356;2022-10-16T07:48:44;6.50;;;2.43;;
7045;SDS011;3564;53.326;10.356;2022-10-16T07:51:12;4.77;;;2.07;;
7045;SDS011;3564;53.326;10.356;2022-10-16T07:53:39;3.83;;;2.17;;
7045;SDS011;3564;53.326;10.356;2022-10-16T07:56:05;3.53;;;1.90;;
7045;SDS011;3564;53.326;10.356;2022-10-16T07:58:32;3.97;;;2.07;;
7045;SDS011;3564;53.326;10.356;2022-10-16T08:00:58;4.77;;;2.13;;
7045;SDS011;3564;53.326;10.356;2022-10-16T08:03:27;5.07;;;2.30;;
7045;SDS011;3564;53.326;10.356;2022-10-16T08:05:53;3.20;;;2.23;;
7045;SDS011;3564;53.326;10.356;2022-10-16T08:08:19;4.80;;;1.80;;
7045;SDS011;3564;53.326;10.356;2022-10-16T08:10:44;3.10;;;2.00;;
7045;SDS011;3564;53.326;10.356;2022-10-16T08:13:10;4.67;;;1.90;;
7045;SDS011;3564;53.326;10.356;2022-10-16T08:15:39;3.20;;;2.00;;
7045;SDS011;3564;53.326;10.356;2022-10-16T08:18:05;4.10;;;1.80;;
7045;SDS011;3564;53.326;10.356;2022-10-16T08:20:31;2.10;;;1.67;;
7045;SDS011;3564;53.326;10.356;2022-10-16T08:22:58;2.87;;;2.07;;
7045;SDS011;3564;53.326;10.356;2022-10-16T08:25:25;4.50;;;2.07;;
7045;SDS011;3564;53.326;10.356;2022-10-16T08:27:51;3.83;;;2.00;;
7045;SDS011;3564;53.326;10.356;2022-10-16T08:30:18;2.87;;;1.90;;
7045;SDS011;3564;53.326;10.356;2022-10-16T08:32:44;3.10;;;2.20;;
7045;SDS011;3564;53.326;10.356;2022-10-16T08:35:11;2.97;;;1.87;;
7045;SDS011;3564;53.326;10.356;2022-10-16T08:37:37;3.13;;;1.93;;
7045;SDS011;3564;53.326;10.356;2022-10-16T08:40:04;3.27;;;1.77;;
7045;SDS011;3564;53.326;10.356;2022-10-16T08:42:40;4.40;;;2.47;;
7045;SDS011;3564;53.326;10.356;2022-10-16T08:48:14;3.77;;;2.13;;
7045;SDS011;3564;53.326;10.356;2022-10-16T08:50:49;3.03;;;1.60;;
7045;SDS011;3564;53.326;10.356;2022-10-16T08:53:21;2.07;;;1.50;;
7045;SDS011;3564;53.326;10.356;2022-10-16T08:55:51;5.23;;;1.90;;
7045;SDS011;3564;53.326;10.356;2022-10-16T08:58:21;6.17;;;2.20;;
7045;SDS011;3564;53.326;10.356;2022-10-16T09:01:35;3.30;;;1.80;;
7045;SDS011;3564;53.326;10.356;2022-10-16T09:06:46;4.27;;;1.60;;
7045;SDS011;3564;53.326;10.356;2022-10-16T09:09:46;1.63;;;1.53;;
7045;SDS011;3564;53.326;10.356;2022-10-16T09:12:28;1.83;;;1.57;;
7045;SDS011;3564;53.326;10.356;2022-10-16T09:14:59;4.33;;;1.50;;
7045;SDS011;3564;53.326;10.356;2022-10-16T09:25:28;1.70;;;1.60;;
7045;SDS011;3564;53.326;10.356;2022-10-16T09:27:55;3.90;;;1.50;;
7045;SDS011;3564;53.326;10.356;2022-10-16T09:30:22;3.33;;;1.40;;
7045;SDS011;3564;53.326;10.356;2022-10-16T09:32:51;2.30;;;1.70;;
7045;SDS011;3564;53.326;10.356;2022-10-16T09:38:04;2.57;;;1.37;;
7045;SDS011;3564;53.326;10.356;2022-10-16T09:40:33;1.93;;;1.50;;
7045;SDS011;3564;53.326;10.356;2022-10-16T09:43:22;1.57;;;1.47;;
7045;SDS011;3564;53.326;10.356;2022-10-16T09:46:00;4.70;;;1.30;;
7045;SDS011;3564;53.326;10.356;2022-10-16T09:48:43;4.90;;;1.60;;
7045;SDS011;3564;53.326;10.356;2022-10-16T09:54:24;3.57;;;2.13;;
7045;SDS011;3564;53.326;10.356;2022-10-16T09:56:45;2.37;;;1.53;;
7045;SDS011;3564;53.326;10.356;2022-10-16T09:59:20;2.20;;;1.30;;
7045;SDS011;3564;53.326;10.356;2022-10-16T10:01:54;1.70;;;1.13;;
7045;SDS011;3564;53.326;10.356;2022-10-16T10:04:21;1.60;;;1.30;;
7045;SDS011;3564;53.326;10.356;2022-10-16T10:06:49;1.67;;;1.20;;
7045;SDS011;3564;53.326;10.356;2022-10-16T10:09:23;3.93;;;2.13;;
7045;SDS011;3564;53.326;10.356;2022-10-16T10:11:55;3.53;;;1.37;;
7045;SDS011;3564;53.326;10.356;2022-10-16T10:19:37;3.97;;;1.37;;
7045;SDS011;3564;53.326;10.356;2022-10-16T10:57:30;2.30;;;1.53;;
7045;SDS011;3564;53.326;10.356;2022-10-16T11:02:50;3.37;;;1.40;;
7045;SDS011;3564;53.326;10.356;2022-10-16T11:05:49;1.23;;;1.00;;
7045;SDS011;3564;53.326;10.356;2022-10-16T11:08:33;2.00;;;1.20;;
7045;SDS011;3564;53.326;10.356;2022-10-16T11:11:08;1.80;;;1.00;;
7045;SDS011;3564;53.326;10.356;2022-10-16T11:14:02;1.83;;;1.30;;
7045;SDS011;3564;53.326;10.356;2022-10-16T11:16:34;3.00;;;1.10;;
7045;SDS011;3564;53.326;10.356;2022-10-16T11:21:45;1.23;;;1.00;;
7045;SDS011;3564;53.326;10.356;2022-10-16T11:24:20;2.30;;;1.30;;
7045;SDS011;3564;53.326;10.356;2022-10-16T11:27:11;1.70;;;1.10;;
7045;SDS011;3564;53.326;10.356;2022-10-16T11:30:04;3.20;;;1.10;;
7045;SDS011;3564;53.326;10.356;2022-10-16T11:32:32;4.20;;;1.30;;
7045;SDS011;3564;53.326;10.356;2022-10-16T11:35:11;2.13;;;1.10;;
7045;SDS011;3564;53.326;10.356;2022-10-16T11:37:44;3.30;;;1.40;;
7045;SDS011;3564;53.326;10.356;2022-10-16T11:40:19;1.70;;;1.33;;
7045;SDS011;3564;53.326;10.356;2022-10-16T11:43:10;3.27;;;1.53;;
7045;SDS011;3564;53.326;10.356;2022-10-16T11:45:42;3.03;;;1.33;;
7045;SDS011;3564;53.326;10.356;2022-10-16T11:50:53;1.63;;;1.07;;
7045;SDS011;3564;53.326;10.356;2022-10-16T11:56:00;3.63;;;1.40;;
7045;SDS011;3564;53.326;10.356;2022-10-16T11:58:30;2.10;;;1.13;;
7045;SDS011;3564;53.326;10.356;2022-10-16T12:01:00;2.50;;;1.17;;
7045;SDS011;3564;53.326;10.356;2022-10-16T12:06:21;1.60;;;1.10;;
7045;SDS011;3564;53.326;10.356;2022-10-16T12:08:55;3.03;;;1.03;;
7045;SDS011;3564;53.326;10.356;2022-10-16T12:14:19;4.33;;;1.40;;
7045;SDS011;3564;53.326;10.356;2022-10-16T12:16:57;1.63;;;1.00;;
7045;SDS011;3564;53.326;10.356;2022-10-16T12:19:56;2.07;;;1.10;;
7045;SDS011;3564;53.326;10.356;2022-10-16T12:22:40;1.27;;;1.10;;
7045;SDS011;3564;53.326;10.356;2022-10-16T12:25:30;2.97;;;1.30;;
7045;SDS011;3564;53.326;10.356;2022-10-16T12:28:20;2.30;;;1.20;;
7045;SDS011;3564;53.326;10.356;2022-10-16T12:30:54;3.83;;;1.20;;
7045;SDS011;3564;53.326;10.356;2022-10-16T12:33:24;3.20;;;1.30;;
7045;SDS011;3564;53.326;10.356;2022-10-16T12:35:51;3.47;;;1.23;;
7045;SDS011;3564;53.326;10.356;2022-10-16T12:38:25;2.20;;;1.40;;
7045;SDS011;3564;53.326;10.356;2022-10-16T12:41:08;3.67;;;1.30;;
7045;SDS011;3564;53.326;10.356;2022-10-16T12:46:04;3.43;;;1.47;;
7045;SDS011;3564;53.326;10.356;2022-10-16T12:48:46;2.00;;;1.20;;
7045;SDS011;3564;53.326;10.356;2022-10-16T12:51:25;2.37;;;1.27;;
7045;SDS011;3564;53.326;10.356;2022-10-16T12:54:13;1.33;;;1.00;;
7045;SDS011;3564;53.326;10.356;2022-10-16T13:08:14;3.10;;;1.50;;
7045;SDS011;3564;53.326;10.356;2022-10-16T13:11:11;4.37;;;1.40;;
7045;SDS011;3564;53.326;10.356;2022-10-16T13:22:49;1.53;;;1.10;;
7045;SDS011;3564;53.326;10.356;2022-10-16T13:25:28;4.97;;;1.47;;
7045;SDS011;3564;53.326;10.356;2022-10-16T13:30:30;3.43;;;1.60;;
7045;SDS011;3564;53.326;10.356;2022-10-16T13:33:16;4.30;;;1.37;;
7045;SDS011;3564;53.326;10.356;2022-10-16T13:35:47;3.73;;;1.40;;
7045;SDS011;3564;53.326;10.356;2022-10-16T13:38:18;4.67;;;1.30;;
7045;SDS011;3564;53.326;10.356;2022-10-16T13:40:56;3.07;;;1.27;;
7045;SDS011;3564;53.326;10.356;2022-10-16T13:43:35;3.23;;;1.27;;
7045;SDS011;3564;53.326;10.356;2022-10-16T13:46:19;3.40;;;1.30;;
7045;SDS011;3564;53.326;10.356;2022-10-16T13:51:27;5.60;;;1.40;;
7045;SDS011;3564;53.326;10.356;2022-10-16T13:53:54;2.63;;;1.30;;
7045;SDS011;3564;53.326;10.356;2022-10-16T13:56:22;5.90;;;1.50;;
7045;SDS011;3564;53.326;10.356;2022-10-16T13:59:02;3.57;;;1.53;;
7045;SDS011;3564;53.326;10.356;2022-10-16T14:01:34;2.27;;;1.20;;
7045;SDS011;3564;53.326;10.356;2022-10-16T14:04:11;3.93;;;1.30;;
7045;SDS011;3564;53.326;10.356;2022-10-16T14:06:48;2.67;;;1.60;;
7045;SDS011;3564;53.326;10.356;2022-10-16T14:09:23;2.80;;;1.53;;
7045;SDS011;3564;53.326;10.356;2022-10-16T14:11:58;1.40;;;1.00;;
7045;SDS011;3564;53.326;10.356;2022-10-16T14:14:43;3.67;;;1.10;;
7045;SDS011;3564;53.326;10.356;2022-10-16T14:19:45;1.30;;;1.20;;
7045;SDS011;3564;53.326;10.356;2022-10-16T14:24:57;2.77;;;1.13;;
7045;SDS011;3564;53.326;10.356;2022-10-16T14:27:24;1.83;;;1.23;;
7045;SDS011;3564;53.326;10.356;2022-10-16T14:30:08;2.10;;;1.40;;
7045;SDS011;3564;53.326;10.356;2022-10-16T14:32:53;3.67;;;1.60;;
7045;SDS011;3564;53.326;10.356;2022-10-16T14:38:05;4.03;;;1.20;;
7045;SDS011;3564;53.326;10.356;2022-10-16T14:40:32;3.00;;;1.40;;
7045;SDS011;3564;53.326;10.356;2022-10-16T14:43:01;2.30;;;1.10;;
7045;SDS011;3564;53.326;10.356;2022-10-16T14:45:29;4.47;;;1.40;;
7045;SDS011;3564;53.326;10.356;2022-10-16T14:47:58;5.10;;;1.50;;
7045;SDS011;3564;53.326;10.356;2022-10-16T14:50:29;4.20;;;1.30;;
7045;SDS011;3564;53.326;10.356;2022-10-16T14:52:55;2.40;;;1.27;;
7045;SDS011;3564;53.326;10.356;2022-10-16T14:55:21;2.20;;;1.20;;
7045;SDS011;3564;53.326;10.356;2022-10-16T14:57:47;3.47;;;1.40;;
7045;SDS011;3564;53.326;10.356;2022-10-16T15:00:17;3.37;;;1.30;;
7045;SDS011;3564;53.326;10.356;2022-10-16T15:02:48;3.97;;;1.40;;
7045;SDS011;3564;53.326;10.356;2022-10-16T15:07:40;2.83;;;1.40;;
7045;SDS011;3564;53.326;10.356;2022-10-16T15:10:06;4.47;;;1.23;;
7045;SDS011;3564;53.326;10.356;2022-10-16T15:12:31;2.63;;;1.37;;
7045;SDS011;3564;53.326;10.356;2022-10-16T15:14:57;2.73;;;1.23;;
7045;SDS011;3564;53.326;10.356;2022-10-16T15:17:23;2.03;;;1.60;;
7045;SDS011;3564;53.326;10.356;2022-10-16T15:19:49;3.20;;;1.30;;
7045;SDS011;3564;53.326;10.356;2022-10-16T15:22:16;3.53;;;1.33;;
7045;SDS011;3564;53.326;10.356;2022-10-16T15:24:43;3.47;;;1.30;;
7045;SDS011;3564;53.326;10.356;2022-10-16T15:27:08;2.93;;;1.20;;
7045;SDS011;3564;53.326;10.356;2022-10-16T15:29:34;3.20;;;1.40;;
7045;SDS011;3564;53.326;10.356;2022-10-16T15:32:00;1.77;;;1.20;;
7045;SDS011;3564;53.326;10.356;2022-10-16T15:34:25;4.87;;;1.43;;
7045;SDS011;3564;53.326;10.356;2022-10-16T15:36:51;2.67;;;1.50;;
7045;SDS011;3564;53.326;10.356;2022-10-16T15:39:17;2.50;;;1.40;;
7045;SDS011;3564;53.326;10.356;2022-10-16T15:41:45;2.70;;;1.40;;
7045;SDS011;3564;53.326;10.356;2022-10-16T15:44:16;5.20;;;1.47;;
7045;SDS011;3564;53.326;10.356;2022-10-16T15:46:42;2.33;;;1.30;;
7045;SDS011;3564;53.326;10.356;2022-10-16T15:49:08;4.43;;;1.50;;
7045;SDS011;3564;53.326;10.356;2022-10-16T15:51:37;2.83;;;1.57;;
7045;SDS011;3564;53.326;10.356;2022-10-16T15:54:04;3.03;;;1.47;;
7045;SDS011;3564;53.326;10.356;2022-10-16T15:56:30;3.73;;;1.67;;
7045;SDS011;3564;53.326;10.356;2022-10-16T15:58:58;4.50;;;1.40;;
7045;SDS011;3564;53.326;10.356;2022-10-16T16:01:26;3.17;;;1.40;;
7045;SDS011;3564;53.326;10.356;2022-10-16T16:03:54;2.67;;;1.33;;
7045;SDS011;3564;53.326;10.356;2022-10-16T16:06:20;3.67;;;1.60;;
7045;SDS011;3564;53.326;10.356;2022-10-16T16:08:48;3.70;;;1.50;;
7045;SDS011;3564;53.326;10.356;2022-10-16T16:11:14;3.03;;;1.70;;
7045;SDS011;3564;53.326;10.356;2022-10-16T16:13:41;4.60;;;1.73;;
7045;SDS011;3564;53.326;10.356;2022-10-16T16:16:09;2.07;;;1.70;;
7045;SDS011;3564;53.326;10.356;2022-10-16T16:18:39;2.87;;;1.70;;
7045;SDS011;3564;53.326;10.356;2022-10-16T16:21:06;3.90;;;2.30;;
7045;SDS011;3564;53.326;10.356;2022-10-16T16:23:32;4.93;;;2.07;;
7045;SDS011;3564;53.326;10.356;2022-10-16T16:28:34;3.50;;;1.73;;
7045;SDS011;3564;53.326;10.356;2022-10-16T16:31:00;3.60;;;1.87;;
7045;SDS011;3564;53.326;10.356;2022-10-16T16:33:26;3.30;;;1.30;;
7045;SDS011;3564;53.326;10.356;2022-10-16T16:35:56;2.73;;;1.50;;
7045;SDS011;3564;53.326;10.356;2022-10-16T16:38:26;4.43;;;1.67;;
7045;SDS011;3564;53.326;10.356;2022-10-16T16:40:52;2.57;;;1.50;;
7045;SDS011;3564;53.326;10.356;2022-10-16T16:43:19;4.90;;;1.40;;
7045;SDS011;3564;53.326;10.356;2022-10-16T16:45:47;5.70;;;1.83;;
7045;SDS011;3564;53.326;10.356;2022-10-16T16:48:13;5.33;;;2.47;;
7045;SDS011;3564;53.326;10.356;2022-10-16T16:50:38;4.07;;;1.60;;
7045;SDS011;3564;53.326;10.356;2022-10-16T16:53:04;9.27;;;2.03;;
7045;SDS011;3564;53.326;10.356;2022-10-16T16:55:32;4.10;;;2.00;;
7045;SDS011;3564;53.326;10.356;2022-10-16T16:57:58;4.47;;;1.93;;
7045;SDS011;3564;53.326;10.356;2022-10-16T17:00:23;3.90;;;2.17;;
7045;SDS011;3564;53.326;10.356;2022-10-16T17:02:49;7.47;;;2.70;;
7045;SDS011;3564;53.326;10.356;2022-10-16T17:05:15;10.20;;;3.23;;
7045;SDS011;3564;53.326;10.356;2022-10-16T17:07:41;5.53;;;3.27;;
7045;SDS011;3564;53.326;10.356;2022-10-16T17:10:07;5.87;;;2.90;;
7045;SDS011;3564;53.326;10.356;2022-10-16T17:12:32;4.30;;;2.47;;
7045;SDS011;3564;53.326;10.356;2022-10-16T17:14:58;4.60;;;2.53;;
7045;SDS011;3564;53.326;10.356;2022-10-16T17:17:24;7.47;;;2.87;;
7045;SDS011;3564;53.326;10.356;2022-10-16T17:19:49;8.03;;;2.40;;
7045;SDS011;3564;53.326;10.356;2022-10-16T17:22:15;7.33;;;3.50;;
7045;SDS011;3564;53.326;10.356;2022-10-16T17:24:41;6.37;;;3.50;;
7045;SDS011;3564;53.326;10.356;2022-10-16T17:27:07;8.13;;;2.80;;
7045;SDS011;3564;53.326;10.356;2022-10-16T17:29:34;7.80;;;3.30;;
7045;SDS011;3564;53.326;10.356;2022-10-16T17:31:59;4.77;;;3.07;;
7045;SDS011;3564;53.326;10.356;2022-10-16T17:34:25;6.13;;;2.80;;
7045;SDS011;3564;53.326;10.356;2022-10-16T17:36:51;3.77;;;2.47;;
7045;SDS011;3564;53.326;10.356;2022-10-16T17:39:17;7.07;;;2.57;;